sensor_id;sensor_type;location;lat;lon;timestamp;temperature;humidity
81315;DHT22;72214;52.510;5.718;2024-01-15T15:36:14;15.10;73.60
81315;DHT22;72214;52.510;5.718;2024-01-15T15:38:45;15.80;73.90
81315;DHT22;72214;52.510;5.718;2024-01-15T15:41:14;16.20;74.50
81315;DHT22;72214;52.510;5.718;2024-01-15T15:43:43;16.50;74.90
81315;DHT22;72214;52.510;5.718;2024-01-15T15:46:13;16.70;75.10
81315;DHT22;72214;52.510;5.718;2024-01-15T15:48:42;16.90;75.20
81315;DHT22;72214;52.510;5.718;2024-01-15T15:51:14;17.00;75.20
81315;DHT22;72214;52.510;5.718;2024-01-15T15:53:43;17.20;75.00
81315;DHT22;72214;52.510;5.718;2024-01-15T15:56:12;17.40;75.00
81315;DHT22;72214;52.510;5.718;2024-01-15T15:58:42;17.50;74.70
81315;DHT22;72214;52.510;5.718;2024-01-15T16:01:11;17.60;74.40
81315;DHT22;72214;52.510;5.718;2024-01-15T16:03:40;17.80;74.10
81315;DHT22;72214;52.510;5.718;2024-01-15T16:06:10;17.80;73.70
81315;DHT22;72214;52.510;5.718;2024-01-15T16:08:42;18.00;73.40
81315;DHT22;72214;52.510;5.718;2024-01-15T16:11:11;18.00;72.80
81315;DHT22;72214;52.510;5.718;2024-01-15T16:13:40;18.10;72.70
81315;DHT22;72214;52.510;5.718;2024-01-15T16:16:10;18.20;72.30
81315;DHT22;72214;52.510;5.718;2024-01-15T16:18:39;18.20;71.90
81315;DHT22;72214;52.510;5.718;2024-01-15T16:21:08;18.30;71.60
81315;DHT22;72214;52.510;5.718;2024-01-15T16:23:39;18.30;71.30
81315;DHT22;72214;52.510;5.718;2024-01-15T16:26:10;18.30;70.90
81315;DHT22;72214;52.510;5.718;2024-01-15T16:28:40;18.40;70.50
81315;DHT22;72214;52.510;5.718;2024-01-15T16:31:09;18.40;70.30
81315;DHT22;72214;52.510;5.718;2024-01-15T16:33:38;18.50;70.00
81315;DHT22;72214;52.510;5.718;2024-01-15T16:36:07;18.50;69.70
81315;DHT22;72214;52.510;5.718;2024-01-15T16:38:37;18.50;69.40
81315;DHT22;72214;52.510;5.718;2024-01-15T16:41:09;18.50;69.20
81315;DHT22;72214;52.510;5.718;2024-01-15T16:43:39;18.60;69.10
81315;DHT22;72214;52.510;5.718;2024-01-15T16:46:08;18.60;69.00
81315;DHT22;72214;52.510;5.718;2024-01-15T16:48:37;18.60;68.90
81315;DHT22;72214;52.510;5.718;2024-01-15T16:51:06;18.60;68.80
81315;DHT22;72214;52.510;5.718;2024-01-15T16:53:36;18.50;68.90
81315;DHT22;72214;52.510;5.718;2024-01-15T16:56:05;18.50;69.00
81315;DHT22;72214;52.510;5.718;2024-01-15T16:58:38;18.40;69.30
81315;DHT22;72214;52.510;5.718;2024-01-15T17:01:07;18.50;69.80
81315;DHT22;72214;52.510;5.718;2024-01-15T17:03:36;18.40;70.10
81315;DHT22;72214;52.510;5.718;2024-01-15T17:06:06;18.50;70.40
81315;DHT22;72214;52.510;5.718;2024-01-15T17:08:35;18.50;70.40
81315;DHT22;72214;52.510;5.718;2024-01-15T17:11:04;18.60;70.30
81315;DHT22;72214;52.510;5.718;2024-01-15T17:13:36;18.60;70.00
81315;DHT22;72214;52.510;5.718;2024-01-15T17:16:06;18.70;69.70
81315;DHT22;72214;52.510;5.718;2024-01-15T17:18:38;18.70;69.60
81315;DHT22;72214;52.510;5.718;2024-01-15T17:21:07;18.70;69.40
81315;DHT22;72214;52.510;5.718;2024-01-15T17:23:36;18.80;69.20
81315;DHT22;72214;52.510;5.718;2024-01-15T17:26:06;18.80;68.90
81315;DHT22;72214;52.510;5.718;2024-01-15T17:28:38;18.80;68.70
81315;DHT22;72214;52.510;5.718;2024-01-15T17:31:07;18.80;68.60
81315;DHT22;72214;52.510;5.718;2024-01-15T17:33:36;18.80;68.60
81315;DHT22;72214;52.510;5.718;2024-01-15T17:36:05;18.80;68.40
81315;DHT22;72214;52.510;5.718;2024-01-15T17:38:35;18.80;68.20
81315;DHT22;72214;52.510;5.718;2024-01-15T17:41:04;18.80;68.00
81315;DHT22;72214;52.510;5.718;2024-01-15T17:43:33;18.80;67.90
81315;DHT22;72214;52.510;5.718;2024-01-15T17:46:05;18.80;67.90
81315;DHT22;72214;52.510;5.718;2024-01-15T17:48:35;18.80;67.70
81315;DHT22;72214;52.510;5.718;2024-01-15T17:51:04;18.80;67.80
81315;DHT22;72214;52.510;5.718;2024-01-15T17:53:33;18.80;67.80
81315;DHT22;72214;52.510;5.718;2024-01-15T17:56:03;18.80;67.60
81315;DHT22;72214;52.510;5.718;2024-01-15T17:58:32;18.80;67.30
81315;DHT22;72214;52.510;5.718;2024-01-15T18:01:04;18.70;67.00
81315;DHT22;72214;52.510;5.718;2024-01-15T18:03:33;18.70;66.80
81315;DHT22;72214;52.510;5.718;2024-01-15T18:09:26;18.60;66.60
81315;DHT22;72214;52.510;5.718;2024-01-15T18:11:55;17.00;66.50
81315;DHT22;72214;52.510;5.718;2024-01-15T18:14:27;14.90;68.30
81315;DHT22;75773;52.534;5.686;2024-01-15T18:16:58;12.80;70.40
81315;DHT22;75773;52.534;5.686;2024-01-15T18:19:27;11.00;72.40
81315;DHT22;75773;52.534;5.686;2024-01-15T18:21:56;9.60;73.90
81315;DHT22;75773;52.534;5.686;2024-01-15T18:24:28;8.40;75.00
81315;DHT22;75773;52.534;5.686;2024-01-15T18:26:58;7.50;75.70
81315;DHT22;75773;52.534;5.686;2024-01-15T18:29:29;6.70;76.30
81315;DHT22;75773;52.534;5.686;2024-01-15T18:31:59;6.00;76.50
81315;DHT22;75773;52.534;5.686;2024-01-15T18:34:30;5.50;76.70
81315;DHT22;75773;52.534;5.686;2024-01-15T18:36:59;5.00;76.70
81315;DHT22;75773;52.534;5.686;2024-01-15T18:39:32;4.70;76.60
81315;DHT22;75773;52.534;5.686;2024-01-15T18:42:01;4.30;76.50
81315;DHT22;75773;52.534;5.686;2024-01-15T18:44:31;4.00;76.50
81315;DHT22;75773;52.534;5.686;2024-01-15T18:47:02;3.70;76.30
81315;DHT22;75773;52.534;5.686;2024-01-15T18:49:34;3.50;76.20
81315;DHT22;75773;52.534;5.686;2024-01-15T18:52:05;3.30;76.10
81315;DHT22;75773;52.534;5.686;2024-01-15T18:54:37;3.10;75.90
81315;DHT22;75773;52.534;5.686;2024-01-15T18:57:09;3.00;75.80
81315;DHT22;75773;52.534;5.686;2024-01-15T18:59:41;2.90;75.70
81315;DHT22;75773;52.534;5.686;2024-01-15T19:02:11;2.70;75.60
81315;DHT22;75773;52.534;5.686;2024-01-15T19:04:41;2.60;75.50
81315;DHT22;75773;52.534;5.686;2024-01-15T19:07:10;2.50;75.40
81315;DHT22;75773;52.534;5.686;2024-01-15T19:09:50;2.40;75.30
81315;DHT22;75773;52.534;5.686;2024-01-15T19:12:20;2.40;75.20
81315;DHT22;75773;52.534;5.686;2024-01-15T19:14:50;2.30;75.20
81315;DHT22;75773;52.534;5.686;2024-01-15T19:17:25;2.30;75.10
81315;DHT22;75773;52.534;5.686;2024-01-15T19:19:56;2.20;75.00
81315;DHT22;75773;52.534;5.686;2024-01-15T19:22:26;2.20;75.00
81315;DHT22;75773;52.534;5.686;2024-01-15T19:25:18;2.10;75.00
81315;DHT22;75773;52.534;5.686;2024-01-15T19:30:38;2.10;74.90
81315;DHT22;75773;52.534;5.686;2024-01-15T19:33:20;2.10;74.80
81315;DHT22;75773;52.534;5.686;2024-01-15T19:35:50;2.00;74.80
81315;DHT22;75773;52.534;5.686;2024-01-15T19:38:25;2.00;74.80
81315;DHT22;75773;52.534;5.686;2024-01-15T19:41:16;2.00;74.80
81315;DHT22;75773;52.534;5.686;2024-01-15T19:43:58;2.00;74.80
81315;DHT22;75773;52.534;5.686;2024-01-15T19:46:47;1.90;74.80
81315;DHT22;75773;52.534;5.686;2024-01-15T19:49:20;1.90;74.80
81315;DHT22;75773;52.534;5.686;2024-01-15T19:52:12;1.90;74.80
81315;DHT22;75773;52.534;5.686;2024-01-15T19:55:12;1.90;74.80
81315;DHT22;75773;52.534;5.686;2024-01-15T19:57:47;1.80;74.80
81315;DHT22;75773;52.534;5.686;2024-01-15T20:00:20;1.80;74.80
81315;DHT22;75773;52.534;5.686;2024-01-15T20:02:50;1.80;74.90
81315;DHT22;75773;52.534;5.686;2024-01-15T20:05:23;1.70;74.90
81315;DHT22;75773;52.534;5.686;2024-01-15T20:08:29;1.70;75.00
81315;DHT22;75773;52.534;5.686;2024-01-15T20:10:59;1.70;75.00
81315;DHT22;75773;52.534;5.686;2024-01-15T20:17:14;1.60;75.10
81315;DHT22;75773;52.534;5.686;2024-01-15T20:20:12;1.60;75.10
81315;DHT22;75773;52.534;5.686;2024-01-15T20:25:48;1.60;75.00
81315;DHT22;75773;52.534;5.686;2024-01-15T20:28:35;1.60;75.10
81315;DHT22;75773;52.534;5.686;2024-01-15T20:31:14;1.60;75.10
81315;DHT22;75773;52.534;5.686;2024-01-15T20:36:50;1.50;75.10
81315;DHT22;75773;52.534;5.686;2024-01-15T20:41:39;1.50;75.20
81315;DHT22;75773;52.534;5.686;2024-01-15T20:44:38;1.50;75.20
81315;DHT22;75773;52.534;5.686;2024-01-15T20:47:53;1.50;75.10
81315;DHT22;75773;52.534;5.686;2024-01-15T21:10:25;1.40;75.20
81315;DHT22;75773;52.534;5.686;2024-01-15T21:18:22;1.40;75.20
81315;DHT22;75773;52.534;5.686;2024-01-15T21:53:29;1.10;75.50
81315;DHT22;75773;52.534;5.686;2024-01-15T21:56:06;1.10;75.50
81315;DHT22;75773;52.534;5.686;2024-01-15T21:58:38;1.10;75.50
81315;DHT22;75773;52.534;5.686;2024-01-15T22:01:07;1.10;75.60
81315;DHT22;75773;52.534;5.686;2024-01-15T22:03:36;1.10;75.70
81315;DHT22;75773;52.534;5.686;2024-01-15T22:06:06;1.00;75.70
81315;DHT22;75773;52.534;5.686;2024-01-15T22:08:41;1.10;75.70
81315;DHT22;75773;52.534;5.686;2024-01-15T22:11:11;1.00;75.70
81315;DHT22;75773;52.534;5.686;2024-01-15T22:13:40;1.00;75.80
81315;DHT22;75773;52.534;5.686;2024-01-15T22:16:14;1.10;75.80
81315;DHT22;75773;52.534;5.686;2024-01-15T22:18:43;1.00;75.80
81315;DHT22;75773;52.534;5.686;2024-01-15T22:21:23;1.10;75.90
81315;DHT22;75773;52.534;5.686;2024-01-15T22:24:09;1.00;75.90
81315;DHT22;75773;52.534;5.686;2024-01-15T22:26:47;1.00;75.90
81315;DHT22;75773;52.534;5.686;2024-01-15T22:29:17;1.00;75.90
81315;DHT22;75773;52.534;5.686;2024-01-15T22:31:54;1.00;76.00
81315;DHT22;75773;52.534;5.686;2024-01-15T22:36:20;1.00;76.00
81315;DHT22;75773;52.534;5.686;2024-01-15T22:44:12;1.00;75.90
81315;DHT22;75773;52.534;5.686;2024-01-15T22:46:52;0.90;76.00
81315;DHT22;75773;52.534;5.686;2024-01-15T22:49:29;0.90;76.00
81315;DHT22;75773;52.534;5.686;2024-01-15T22:51:58;0.80;76.00
81315;DHT22;75773;52.534;5.686;2024-01-15T22:54:28;0.80;76.00
81315;DHT22;75773;52.534;5.686;2024-01-15T22:57:00;0.80;76.10
81315;DHT22;75773;52.534;5.686;2024-01-15T22:59:29;0.80;76.10
81315;DHT22;75773;52.534;5.686;2024-01-15T23:01:58;0.80;76.20
81315;DHT22;75773;52.534;5.686;2024-01-15T23:04:29;0.80;76.20
81315;DHT22;75773;52.534;5.686;2024-01-15T23:06:58;0.70;76.20
81315;DHT22;75773;52.534;5.686;2024-01-15T23:09:28;0.70;76.20
81315;DHT22;75773;52.534;5.686;2024-01-15T23:12:00;0.70;76.20
81315;DHT22;75773;52.534;5.686;2024-01-15T23:14:30;0.70;76.20
81315;DHT22;75773;52.534;5.686;2024-01-15T23:17:00;0.60;76.20
81315;DHT22;75773;52.534;5.686;2024-01-15T23:19:29;0.60;76.20
81315;DHT22;75773;52.534;5.686;2024-01-15T23:21:59;0.60;76.20
81315;DHT22;75773;52.534;5.686;2024-01-15T23:24:28;0.70;76.20
81315;DHT22;75773;52.534;5.686;2024-01-15T23:27:03;0.70;76.20
81315;DHT22;75773;52.534;5.686;2024-01-15T23:29:32;0.70;76.20
81315;DHT22;75773;52.534;5.686;2024-01-15T23:32:02;0.70;76.20
81315;DHT22;75773;52.534;5.686;2024-01-15T23:34:32;0.80;76.20
81315;DHT22;75773;52.534;5.686;2024-01-15T23:37:03;0.80;76.20
81315;DHT22;75773;52.534;5.686;2024-01-15T23:39:34;0.80;76.20
81315;DHT22;75773;52.534;5.686;2024-01-15T23:42:07;0.80;76.20
81315;DHT22;75773;52.534;5.686;2024-01-15T23:44:36;0.80;76.20
81315;DHT22;75773;52.534;5.686;2024-01-15T23:47:06;0.80;76.20
81315;DHT22;75773;52.534;5.686;2024-01-15T23:49:35;0.80;76.20
81315;DHT22;75773;52.534;5.686;2024-01-15T23:52:05;0.80;76.20
81315;DHT22;75773;52.534;5.686;2024-01-15T23:54:34;0.80;76.30
81315;DHT22;75773;52.534;5.686;2024-01-15T23:57:11;0.80;76.30
81315;DHT22;75773;52.534;5.686;2024-01-15T23:59:40;0.80;76.30
